createdAt,value
2023-07-11T00:00:01.575Z,25.73
2023-07-11T00:01:01.563Z,20.58
2023-07-11T00:02:01.612Z,26.05
2023-07-11T00:03:01.590Z,20.58
2023-07-11T00:04:01.549Z,20.25
2023-07-11T00:05:01.494Z,20.58
2023-07-11T00:06:01.529Z,20.25
2023-07-11T00:07:01.493Z,20.90
2023-07-11T00:08:01.566Z,27.67
2023-07-11T00:09:01.448Z,19.93
2023-07-11T00:10:01.473Z,20.25
2023-07-11T00:11:01.432Z,20.90
2023-07-11T00:12:01.447Z,19.61
2023-07-11T00:13:01.413Z,26.38
2023-07-11T00:14:01.423Z,20.90
2023-07-11T00:15:01.388Z,15.42
2023-07-11T00:16:01.385Z,20.90
2023-07-11T00:17:01.511Z,19.61
2023-07-11T00:18:01.427Z,12.84
2023-07-11T00:19:01.336Z,17.35
2023-07-11T00:20:01.360Z,20.25
2023-07-11T00:21:01.319Z,20.90
2023-07-11T00:22:01.342Z,20.25
2023-07-11T00:23:01.312Z,17.35
2023-07-11T00:24:01.319Z,19.93
2023-07-11T00:25:01.300Z,24.12
2023-07-11T00:26:01.284Z,25.73
2023-07-11T00:27:01.253Z,20.58
2023-07-11T00:28:01.292Z,25.73
2023-07-11T00:29:01.233Z,20.58
2023-07-11T00:30:01.287Z,20.25
2023-07-11T00:31:01.246Z,25.41
2023-07-11T00:32:01.217Z,27.02
2023-07-11T00:33:01.253Z,20.58
2023-07-11T00:34:01.214Z,25.41
2023-07-11T00:35:01.313Z,22.19
2023-07-11T00:36:01.193Z,20.25
2023-07-11T00:37:01.150Z,19.93
2023-07-11T00:38:01.173Z,20.25
2023-07-11T00:39:01.142Z,11.87
2023-07-11T00:40:01.130Z,21.54
2023-07-11T00:41:01.114Z,14.78
2023-07-11T00:42:01.113Z,20.25
2023-07-11T00:43:01.082Z,29.60
2023-07-11T00:44:01.121Z,20.58
2023-07-11T00:45:01.095Z,19.93
2023-07-11T00:46:01.091Z,18.64
2023-07-11T00:47:01.061Z,20.25
2023-07-11T00:48:01.133Z,14.13
2023-07-11T00:49:01.026Z,20.25
2023-07-11T00:50:01.063Z,15.42
2023-07-11T00:51:00.995Z,19.93
2023-07-11T00:52:01.035Z,20.58
2023-07-11T00:53:00.979Z,19.29
2023-07-11T00:54:01.007Z,18.32
2023-07-11T00:55:00.968Z,19.93
2023-07-11T00:56:00.987Z,27.02
2023-07-11T00:57:00.942Z,13.16
2023-07-11T00:58:00.963Z,12.20
2023-07-11T00:59:00.915Z,23.48
2023-07-11T01:00:00.935Z,17.03
2023-07-11T01:01:00.922Z,20.25
2023-07-11T01:02:00.900Z,23.48
2023-07-11T01:03:01.028Z,19.29
2023-07-11T01:04:01.019Z,17.35
2023-07-11T01:05:00.857Z,20.90
2023-07-11T01:06:00.889Z,19.93
2023-07-11T01:07:00.821Z,19.93
2023-07-11T01:08:00.852Z,19.61
2023-07-11T01:09:00.798Z,19.93
2023-07-11T01:10:00.826Z,23.48
2023-07-11T01:11:00.776Z,21.54
2023-07-11T01:12:00.811Z,27.02
2023-07-11T01:13:00.756Z,30.89
2023-07-11T01:14:00.852Z,12.52
2023-07-11T01:15:00.767Z,19.93
2023-07-11T01:16:00.764Z,19.61
2023-07-11T01:17:00.808Z,12.20
2023-07-11T01:18:00.794Z,25.09
2023-07-11T01:19:00.695Z,19.61
2023-07-11T01:20:00.723Z,20.58
2023-07-11T01:21:00.664Z,20.58
2023-07-11T01:22:00.710Z,27.02
2023-07-11T01:23:00.649Z,18.32
2023-07-11T01:24:00.668Z,19.61
2023-07-11T01:25:00.687Z,19.61
2023-07-11T01:26:00.661Z,14.78
2023-07-11T01:27:00.613Z,19.93
2023-07-11T01:28:00.632Z,23.48
2023-07-11T01:29:00.605Z,12.52
2023-07-11T01:30:00.591Z,19.61
2023-07-11T01:31:00.629Z,19.93
2023-07-11T01:32:00.563Z,19.61
2023-07-11T01:33:00.588Z,19.61
2023-07-11T01:34:00.554Z,20.90
2023-07-11T01:35:00.531Z,25.09
2023-07-11T01:36:00.548Z,19.61
2023-07-11T01:37:00.491Z,18.00
2023-07-11T01:38:00.529Z,19.61
2023-07-11T01:39:00.491Z,16.39
2023-07-11T01:40:00.502Z,19.61
2023-07-11T01:41:00.444Z,19.61
2023-07-11T01:42:00.476Z,25.41
2023-07-11T01:43:00.430Z,18.96
2023-07-11T01:44:00.453Z,19.61
2023-07-11T01:45:00.414Z,25.73
2023-07-11T01:46:00.477Z,14.45
2023-07-11T01:47:00.381Z,12.52
2023-07-11T01:48:00.459Z,19.29
2023-07-11T01:49:00.377Z,14.13
2023-07-11T01:50:00.374Z,17.68
2023-07-11T01:51:00.328Z,20.58
2023-07-11T01:52:00.350Z,11.87
2023-07-11T01:53:00.306Z,19.29
2023-07-11T01:54:00.328Z,18.32
2023-07-11T01:55:07.320Z,19.29
2023-07-11T01:56:00.309Z,20.25
2023-07-11T01:57:00.275Z,19.61
2023-07-11T01:58:00.293Z,18.64
2023-07-11T01:59:00.237Z,19.29
2023-07-11T02:00:00.311Z,13.49
2023-07-11T02:01:00.226Z,19.61
2023-07-11T02:02:00.324Z,19.29
2023-07-11T02:03:00.352Z,19.61
2023-07-11T02:04:00.229Z,19.61
2023-07-11T02:05:00.198Z,19.29
2023-07-11T02:06:00.204Z,19.29
2023-07-11T02:07:00.156Z,18.96
2023-07-11T02:08:00.197Z,19.29
2023-07-11T02:09:00.138Z,27.34
2023-07-11T02:10:00.152Z,13.49
2023-07-11T02:11:00.118Z,19.61
2023-07-11T02:12:00.133Z,19.61
2023-07-11T02:13:00.101Z,24.12
2023-07-11T02:14:00.177Z,18.00
2023-07-11T02:15:00.064Z,18.64
2023-07-11T02:16:00.131Z,25.73
2023-07-11T02:17:00.145Z,26.38
2023-07-11T02:18:00.078Z,19.29
2023-07-11T02:19:00.033Z,12.52
2023-07-11T02:20:00.029Z,19.61
2023-07-11T02:20:59.997Z,18.96
2023-07-11T02:22:00.027Z,18.96
2023-07-11T02:22:59.987Z,21.87
2023-07-11T02:23:59.971Z,17.03
2023-07-11T02:24:59.975Z,19.29
2023-07-11T02:25:59.956Z,18.64
2023-07-11T02:26:59.966Z,19.29
2023-07-11T02:27:59.938Z,21.22
2023-07-11T02:28:59.943Z,19.61
2023-07-11T02:29:59.906Z,13.49
2023-07-11T02:30:59.907Z,13.81
2023-07-11T02:31:59.968Z,19.29
2023-07-11T02:32:59.894Z,26.38
2023-07-11T02:33:59.858Z,14.78
2023-07-11T02:34:59.862Z,15.10
2023-07-11T02:35:59.846Z,18.96
2023-07-11T02:36:59.859Z,19.29
2023-07-11T02:37:59.811Z,18.96
2023-07-11T02:38:59.831Z,17.03
2023-07-11T02:39:59.788Z,18.96
2023-07-11T02:40:59.807Z,19.29
2023-07-11T02:41:59.783Z,12.20
2023-07-11T02:42:59.778Z,18.96
2023-07-11T02:43:59.761Z,14.78
2023-07-11T02:44:59.766Z,24.77
2023-07-11T02:45:59.775Z,13.81
2023-07-11T02:46:59.745Z,14.45
2023-07-11T02:47:59.750Z,17.68
2023-07-11T02:48:59.695Z,19.29
2023-07-11T02:49:59.779Z,24.44
2023-07-11T02:50:59.701Z,18.96
2023-07-11T02:51:59.620Z,18.32
2023-07-11T02:52:59.625Z,19.29
2023-07-11T02:53:59.589Z,18.96
2023-07-11T02:54:59.655Z,12.84
2023-07-11T02:55:59.634Z,18.96
2023-07-11T02:56:59.600Z,17.68
2023-07-11T02:57:59.548Z,19.61
2023-07-11T02:58:59.576Z,11.87
2023-07-11T02:59:59.572Z,18.96
2023-07-11T03:00:59.639Z,19.29
2023-07-11T03:01:59.564Z,18.96
2023-07-11T03:02:59.579Z,23.80
2023-07-11T03:03:59.477Z,27.02
2023-07-11T03:04:59.542Z,18.96
2023-07-11T03:05:59.457Z,25.41
2023-07-11T03:06:59.475Z,19.29
2023-07-11T03:07:59.445Z,27.02
2023-07-11T03:08:59.455Z,23.80
2023-07-11T03:09:59.409Z,30.89
2023-07-11T03:10:59.449Z,19.61
2023-07-11T03:11:59.399Z,23.80
2023-07-11T03:12:59.426Z,18.96
2023-07-11T03:13:59.384Z,18.96
2023-07-11T03:15:01.230Z,18.96
2023-07-11T03:15:59.357Z,16.71
2023-07-11T03:16:59.483Z,18.96
2023-07-11T03:17:59.378Z,6.40
2023-07-11T03:18:59.350Z,18.00
2023-07-11T03:19:59.301Z,12.84
2023-07-11T03:20:59.320Z,12.52
2023-07-11T03:21:59.299Z,18.96
2023-07-11T03:22:59.305Z,18.96
2023-07-11T03:23:59.257Z,12.84
2023-07-11T03:24:59.297Z,25.41
2023-07-11T03:25:59.249Z,27.34
2023-07-11T03:26:59.245Z,18.00
2023-07-11T03:27:59.222Z,18.64
2023-07-11T03:28:59.229Z,18.64
2023-07-11T03:29:59.203Z,23.48
2023-07-11T03:30:59.244Z,14.13
2023-07-11T03:31:59.166Z,18.64
2023-07-11T03:32:59.317Z,16.39
2023-07-11T03:33:59.152Z,22.83
2023-07-11T03:35:03.524Z,18.96
2023-07-11T03:35:59.153Z,17.68
2023-07-11T03:36:59.154Z,18.64
2023-07-11T03:37:59.103Z,13.16
2023-07-11T03:38:59.115Z,18.32
2023-07-11T03:39:59.087Z,25.73
2023-07-11T03:40:59.116Z,18.32
2023-07-11T03:41:59.059Z,13.16
2023-07-11T03:42:59.103Z,23.48
2023-07-11T03:43:59.063Z,18.00
2023-07-11T03:44:59.064Z,14.45
2023-07-11T03:45:59.044Z,18.32
2023-07-11T03:46:59.146Z,18.96
2023-07-11T03:47:59.057Z,17.68
2023-07-11T03:48:59.015Z,18.32
2023-07-11T03:49:58.984Z,18.64
2023-07-11T03:50:58.986Z,18.64
2023-07-11T03:51:58.953Z,22.19
2023-07-11T03:52:58.949Z,18.32
2023-07-11T03:53:58.931Z,15.74
2023-07-11T03:54:58.931Z,18.32
2023-07-11T03:55:58.908Z,18.64
2023-07-11T03:56:58.920Z,17.35
2023-07-11T03:57:58.889Z,18.96
2023-07-11T03:58:58.899Z,18.96
2023-07-11T03:59:58.855Z,12.20
2023-07-11T04:00:58.888Z,18.96
2023-07-11T04:01:58.838Z,19.29
2023-07-11T04:02:58.914Z,18.32
2023-07-11T04:03:58.852Z,18.32
2023-07-11T04:04:58.833Z,18.00
2023-07-11T04:05:58.787Z,10.91
2023-07-11T04:06:58.824Z,19.29
2023-07-11T04:08:05.283Z,18.64
2023-07-11T04:08:58.771Z,18.32
2023-07-11T04:09:58.741Z,18.32
2023-07-11T04:10:58.761Z,23.80
2023-07-11T04:11:58.740Z,18.96
2023-07-11T04:12:58.758Z,14.78
2023-07-11T04:13:58.764Z,18.64
2023-07-11T04:14:58.775Z,23.15
2023-07-11T04:15:58.674Z,19.93
2023-07-11T04:16:58.860Z,22.83
2023-07-11T04:17:58.683Z,18.64
2023-07-11T04:18:58.665Z,11.87
2023-07-11T04:19:58.650Z,19.29
2023-07-11T04:20:58.639Z,21.22
2023-07-11T04:21:58.646Z,18.64
2023-07-11T04:22:58.614Z,14.13
2023-07-11T04:23:58.630Z,19.61
2023-07-11T04:24:58.625Z,11.87
2023-07-11T04:25:58.562Z,14.45
2023-07-11T04:26:58.617Z,21.22
2023-07-11T04:27:58.576Z,22.83
2023-07-11T04:28:58.566Z,18.32
2023-07-11T04:29:58.530Z,10.26
2023-07-11T04:30:58.628Z,18.32
2023-07-11T04:31:58.494Z,18.32
2023-07-11T04:32:58.607Z,18.32
2023-07-11T04:33:58.489Z,17.68
2023-07-11T04:34:58.499Z,12.52
2023-07-11T04:35:58.488Z,13.16
2023-07-11T04:36:58.479Z,23.15
2023-07-11T04:37:58.433Z,19.61
2023-07-11T04:38:58.442Z,26.70
2023-07-11T04:39:58.411Z,17.03
2023-07-11T04:40:58.432Z,12.20
2023-07-11T04:41:58.410Z,18.96
2023-07-11T04:42:58.417Z,9.62
2023-07-11T04:43:58.398Z,24.44
2023-07-11T04:44:58.386Z,18.64
2023-07-11T04:45:58.348Z,19.29
2023-07-11T04:46:58.477Z,18.64
2023-07-11T04:47:58.370Z,20.25
2023-07-11T04:48:58.348Z,18.96
2023-07-11T04:49:58.308Z,18.96
2023-07-11T04:50:58.331Z,18.64
2023-07-11T04:51:58.349Z,18.64
2023-07-11T04:52:58.295Z,18.96
2023-07-11T04:53:58.257Z,18.00
2023-07-11T04:54:58.283Z,18.64
2023-07-11T04:55:58.263Z,18.32
2023-07-11T04:56:58.254Z,14.78
2023-07-11T04:57:58.217Z,18.32
2023-07-11T04:58:58.239Z,18.64
2023-07-11T04:59:58.193Z,21.87
2023-07-11T05:00:58.242Z,19.29
2023-07-11T05:01:58.242Z,18.64
2023-07-11T05:02:58.191Z,12.20
2023-07-11T05:03:58.178Z,16.06
2023-07-11T05:04:58.162Z,12.20
2023-07-11T05:05:58.140Z,11.23
2023-07-11T05:06:58.158Z,26.38
2023-07-11T05:07:58.105Z,18.64
2023-07-11T05:08:58.124Z,19.29
2023-07-11T05:09:59.527Z,24.44
2023-07-11T05:10:58.098Z,18.96
2023-07-11T05:11:58.061Z,11.87
2023-07-11T05:12:58.097Z,22.51
2023-07-11T05:13:58.092Z,23.80
2023-07-11T05:14:58.049Z,17.68
2023-07-11T05:15:58.090Z,19.29
2023-07-11T05:16:58.087Z,13.49
2023-07-11T05:17:58.082Z,17.35
2023-07-11T05:18:58.015Z,24.44
2023-07-11T05:19:57.978Z,18.96
2023-07-11T05:20:58.020Z,19.29
2023-07-11T05:21:57.967Z,19.29
2023-07-11T05:22:57.973Z,19.29
2023-07-11T05:23:57.936Z,17.03
2023-07-11T05:24:57.952Z,19.61
2023-07-11T05:25:57.923Z,18.64
2023-07-11T05:26:57.936Z,18.96
2023-07-11T05:28:15.025Z,19.29
2023-07-11T05:28:57.972Z,14.45
2023-07-11T05:30:13.565Z,23.15
2023-07-11T05:30:58.024Z,19.29
2023-07-11T05:32:12.570Z,17.03
2023-07-11T05:32:57.950Z,15.42
2023-07-11T05:34:07.915Z,18.96
2023-07-11T05:34:57.973Z,25.73
2023-07-11T05:36:13.357Z,19.29
2023-07-11T05:36:57.993Z,11.87
2023-07-11T05:37:57.947Z,19.93
2023-07-11T05:38:57.975Z,19.29
2023-07-11T05:39:57.860Z,19.29
2023-07-11T05:40:57.952Z,19.29
2023-07-11T05:41:57.910Z,19.93
2023-07-11T05:42:57.946Z,19.29
2023-07-11T05:43:57.888Z,15.10
2023-07-11T05:44:57.947Z,14.45
2023-07-11T05:45:57.883Z,22.51
2023-07-11T05:46:57.891Z,19.29
2023-07-11T05:47:57.854Z,20.25
2023-07-11T05:48:57.859Z,25.73
2023-07-11T05:49:57.811Z,15.10
2023-07-11T05:50:57.847Z,19.61
2023-07-11T05:51:57.804Z,26.70
2023-07-11T05:52:57.781Z,19.29
2023-07-11T05:53:57.783Z,19.29
2023-07-11T05:54:57.733Z,13.49
2023-07-11T05:55:57.752Z,18.64
2023-07-11T05:56:57.796Z,19.29
2023-07-11T05:57:57.739Z,19.93
2023-07-11T05:58:57.730Z,20.25
2023-07-11T05:59:57.682Z,14.45
2023-07-11T06:00:57.722Z,13.81
2023-07-11T06:01:57.848Z,13.49
2023-07-11T06:02:57.568Z,19.61
2023-07-11T06:03:57.534Z,19.93
2023-07-11T06:04:57.506Z,20.25
2023-07-11T06:05:57.490Z,20.25
2023-07-11T06:06:57.505Z,15.10
2023-07-11T06:07:57.462Z,13.81
2023-07-11T06:08:57.473Z,28.31
2023-07-11T06:09:57.575Z,19.61
2023-07-11T06:10:57.443Z,23.15
2023-07-11T06:11:57.446Z,21.22
2023-07-11T06:12:57.426Z,19.61
2023-07-11T06:13:57.454Z,20.25
2023-07-11T06:14:57.397Z,24.44
2023-07-11T06:15:57.420Z,20.25
2023-07-11T06:16:57.527Z,29.28
2023-07-11T06:17:57.402Z,13.16
2023-07-11T06:18:57.357Z,19.93
2023-07-11T06:19:57.312Z,20.25
2023-07-11T06:20:57.341Z,15.10
2023-07-11T06:21:57.301Z,28.31
2023-07-11T06:22:57.342Z,20.58
2023-07-11T06:23:57.406Z,20.58
2023-07-11T06:24:57.293Z,20.58
2023-07-11T06:25:57.249Z,19.61
2023-07-11T06:26:57.283Z,20.58
2023-07-11T06:27:57.253Z,20.25
2023-07-11T06:28:57.255Z,28.63
2023-07-11T06:29:57.206Z,20.25
2023-07-11T06:30:57.233Z,26.05
2023-07-11T06:31:57.222Z,21.87
2023-07-11T06:32:57.260Z,19.93
2023-07-11T06:33:57.186Z,20.90
2023-07-11T06:34:57.168Z,18.96
2023-07-11T06:35:57.156Z,20.58
2023-07-11T06:36:57.168Z,11.55
2023-07-11T06:37:57.151Z,20.90
2023-07-11T06:38:57.127Z,20.90
2023-07-11T06:39:57.111Z,18.00
2023-07-11T06:40:57.087Z,24.12
2023-07-11T06:41:57.114Z,20.90
2023-07-11T06:42:57.071Z,20.90
2023-07-11T06:43:57.142Z,27.99
2023-07-11T06:44:57.045Z,20.90
2023-07-11T06:45:57.147Z,14.13
2023-07-11T06:46:57.018Z,19.29
2023-07-11T06:47:57.049Z,20.90
2023-07-11T06:48:57.022Z,17.03
2023-07-11T06:49:57.002Z,26.38
2023-07-11T06:50:56.991Z,28.31
2023-07-11T06:51:56.987Z,15.42
2023-07-11T06:52:56.975Z,20.90
2023-07-11T06:53:56.957Z,27.02
2023-07-11T06:54:56.931Z,21.22
2023-07-11T06:55:56.936Z,14.78
2023-07-11T06:56:56.945Z,18.32
2023-07-11T06:57:56.916Z,20.90
2023-07-11T06:58:56.889Z,21.54
2023-07-11T06:59:56.900Z,13.81
2023-07-11T07:00:56.964Z,20.25
2023-07-11T07:01:56.925Z,22.51
2023-07-11T07:02:56.910Z,21.22
2023-07-11T07:03:56.889Z,19.93
2023-07-11T07:04:56.833Z,22.19
2023-07-11T07:05:56.847Z,21.87
2023-07-11T07:06:56.804Z,22.51
2023-07-11T07:08:09.049Z,21.54
2023-07-11T07:08:56.779Z,21.87
2023-07-11T07:09:56.804Z,16.06
2023-07-11T07:10:56.842Z,19.93
2023-07-11T07:11:56.841Z,21.87
2023-07-11T07:12:56.744Z,13.49
2023-07-11T07:14:05.492Z,16.71
2023-07-11T07:14:56.713Z,22.19
2023-07-11T07:15:56.731Z,22.51
2023-07-11T07:16:56.714Z,21.87
2023-07-11T07:17:56.793Z,25.73
2023-07-11T07:18:56.668Z,13.49
2023-07-11T07:19:56.674Z,22.51
2023-07-11T07:20:58.467Z,22.51
2023-07-11T07:21:56.682Z,22.19
2023-07-11T07:22:56.641Z,22.51
2023-07-11T07:23:56.650Z,18.32
2023-07-11T07:24:56.604Z,22.19
2023-07-11T07:25:56.624Z,8.97
2023-07-11T07:26:56.603Z,15.10
2023-07-11T07:27:56.599Z,18.00
2023-07-11T07:28:56.566Z,18.64
2023-07-11T07:29:56.581Z,23.15
2023-07-11T07:30:56.578Z,22.83
2023-07-11T07:31:56.542Z,22.83
2023-07-11T07:32:56.578Z,22.19
2023-07-11T07:33:56.524Z,22.83
2023-07-11T07:34:56.498Z,17.35
2023-07-11T07:35:56.504Z,22.83
2023-07-11T07:36:56.480Z,22.51
2023-07-11T07:37:56.512Z,17.68
2023-07-11T07:38:56.466Z,22.51
2023-07-11T07:39:56.471Z,23.15
2023-07-11T07:40:56.448Z,23.15
2023-07-11T07:41:56.450Z,15.10
2023-07-11T07:42:56.413Z,27.02
2023-07-11T07:43:56.497Z,30.57
2023-07-11T07:44:56.398Z,22.83
2023-07-11T07:45:56.397Z,23.15
2023-07-11T07:46:56.489Z,22.83
2023-07-11T07:47:56.434Z,16.71
2023-07-11T07:48:56.358Z,22.83
2023-07-11T07:49:57.974Z,23.80
2023-07-11T07:50:56.335Z,22.19
2023-07-11T07:51:56.359Z,24.12
2023-07-11T07:52:56.309Z,23.15
2023-07-11T07:53:56.328Z,23.80
2023-07-11T07:54:56.313Z,23.48
2023-07-11T07:55:56.313Z,22.83
2023-07-11T07:56:56.283Z,18.64
2023-07-11T07:57:56.319Z,24.12
2023-07-11T07:58:56.273Z,24.12
2023-07-11T07:59:56.250Z,28.96
2023-07-11T08:00:56.255Z,31.53
2023-07-11T08:01:56.237Z,24.12
2023-07-11T08:02:56.255Z,24.44
2023-07-11T08:03:56.288Z,35.08
2023-07-11T08:04:56.251Z,24.12
2023-07-11T08:06:05.783Z,30.89
2023-07-11T08:06:56.184Z,15.42
2023-07-11T08:07:56.217Z,28.31
2023-07-11T08:08:56.173Z,19.29
2023-07-11T08:09:56.170Z,24.12
2023-07-11T08:10:56.118Z,29.92
2023-07-11T08:11:56.163Z,29.92
2023-07-11T08:12:56.097Z,16.06
2023-07-11T08:14:00.022Z,24.77
2023-07-11T08:14:56.084Z,29.60
2023-07-11T08:15:56.106Z,25.09
2023-07-11T08:16:56.106Z,25.41
2023-07-11T08:17:56.128Z,20.58
2023-07-11T08:18:56.053Z,29.92
2023-07-11T08:19:56.062Z,25.09
2023-07-11T08:20:56.045Z,25.41
2023-07-11T08:21:56.035Z,35.40
2023-07-11T08:22:56.002Z,25.09
2023-07-11T08:23:56.020Z,19.93
2023-07-11T08:24:55.987Z,21.87
2023-07-11T08:25:56.012Z,31.86
2023-07-11T08:26:55.963Z,30.89
2023-07-11T08:27:55.986Z,25.73
2023-07-11T08:28:56.150Z,29.60
2023-07-11T08:29:55.954Z,26.05
2023-07-11T08:30:55.963Z,24.77
2023-07-11T08:31:55.960Z,30.24
2023-07-11T08:32:55.955Z,23.48
2023-07-11T08:33:55.904Z,22.19
2023-07-11T08:34:55.888Z,26.05
2023-07-11T08:35:55.878Z,32.82
2023-07-11T08:36:55.853Z,21.87
2023-07-11T08:37:55.896Z,33.79
2023-07-11T08:38:55.859Z,30.24
2023-07-11T08:39:55.840Z,30.24
2023-07-11T08:40:55.822Z,23.80
2023-07-11T08:41:55.829Z,20.90
2023-07-11T08:42:55.798Z,26.70
2023-07-11T08:43:55.835Z,31.86
2023-07-11T08:44:55.782Z,26.70
2023-07-11T08:46:10.721Z,30.24
2023-07-11T08:46:55.779Z,26.38
2023-07-11T08:47:55.818Z,26.70
2023-07-11T08:48:55.755Z,26.38
2023-07-11T08:49:55.749Z,27.67
2023-07-11T08:50:55.752Z,27.02
2023-07-11T08:51:55.730Z,32.82
2023-07-11T08:52:55.695Z,27.02
2023-07-11T08:53:55.744Z,27.67
2023-07-11T08:54:55.702Z,33.47
2023-07-11T08:55:55.698Z,30.24
2023-07-11T08:56:55.644Z,31.21
2023-07-11T08:57:55.789Z,27.67
2023-07-11T08:58:55.636Z,27.67
2023-07-11T08:59:55.629Z,27.02
2023-07-11T09:00:55.614Z,22.51
2023-07-11T09:01:55.703Z,27.99
2023-07-11T09:02:56.875Z,27.67
2023-07-11T09:03:55.600Z,34.11
2023-07-11T09:04:55.572Z,21.54
2023-07-11T09:05:55.588Z,36.37
2023-07-11T09:06:55.540Z,35.08
2023-07-11T09:07:55.566Z,23.80
2023-07-11T09:08:55.625Z,27.99
2023-07-11T09:09:55.527Z,26.70
2023-07-11T09:10:55.503Z,28.31
2023-07-11T09:11:55.539Z,28.63
2023-07-11T09:13:03.076Z,32.50
2023-07-11T09:13:55.556Z,35.72
2023-07-11T09:14:55.466Z,20.90
2023-07-11T09:15:55.554Z,28.31
2023-07-11T09:16:55.552Z,33.79
2023-07-11T09:17:55.470Z,22.83
2023-07-11T09:18:55.422Z,28.96
2023-07-11T09:19:55.459Z,23.15
2023-07-11T09:20:55.408Z,28.63
2023-07-11T09:21:55.434Z,25.41
2023-07-11T09:22:55.386Z,21.22
2023-07-11T09:23:59.165Z,27.99
2023-07-11T09:24:55.876Z,28.31
2023-07-11T09:25:55.393Z,28.31
2023-07-11T09:26:55.366Z,21.87
2023-07-11T09:27:55.369Z,29.28
2023-07-11T09:28:55.338Z,28.96
2023-07-11T09:29:55.355Z,24.44
2023-07-11T09:30:55.715Z,22.51
2023-07-11T09:31:55.373Z,28.96
2023-07-11T09:32:55.367Z,30.24
2023-07-11T09:33:55.319Z,29.60
2023-07-11T09:34:55.272Z,28.96
2023-07-11T09:35:55.281Z,34.76
2023-07-11T09:36:55.249Z,29.60
2023-07-11T09:37:55.267Z,36.69
2023-07-11T09:38:55.225Z,31.21
2023-07-11T09:39:55.251Z,29.28
2023-07-11T09:40:55.205Z,29.28
2023-07-11T09:41:55.232Z,29.28
2023-07-11T09:42:55.208Z,27.02
2023-07-11T09:43:55.199Z,30.24
2023-07-11T09:44:55.204Z,30.89
2023-07-11T09:45:55.217Z,33.14
2023-07-11T09:46:55.166Z,37.66
2023-07-11T09:47:55.202Z,29.60
2023-07-11T09:48:55.137Z,29.92
2023-07-11T09:49:55.160Z,29.92
2023-07-11T09:51:55.142Z,29.92
2023-07-11T09:52:55.091Z,23.15
2023-07-11T09:53:55.140Z,25.09
2023-07-11T09:55:07.295Z,30.24
2023-07-11T09:56:55.053Z,25.41
2023-07-11T09:57:55.065Z,30.24
2023-07-11T09:58:55.057Z,30.57
2023-07-11T09:59:55.694Z,30.57
2023-07-11T10:00:55.063Z,27.02
2023-07-11T10:01:55.197Z,30.57
2023-07-11T10:02:55.047Z,30.89
2023-07-11T10:03:55.031Z,32.82
2023-07-11T10:04:55.033Z,25.73
2023-07-11T10:05:55.007Z,30.57
2023-07-11T10:06:54.965Z,38.30
2023-07-11T10:07:54.973Z,36.37
2023-07-11T10:08:54.944Z,31.21
2023-07-11T10:09:54.977Z,35.40
2023-07-11T10:10:54.934Z,31.53
2023-07-11T10:11:54.929Z,38.62
2023-07-11T10:12:54.996Z,31.53
2023-07-11T10:13:54.989Z,31.53
2023-07-11T10:14:54.895Z,32.18
2023-07-11T10:15:54.911Z,24.77
2023-07-11T10:16:55.031Z,31.53
2023-07-11T10:17:54.965Z,27.67
2023-07-11T10:18:54.855Z,29.28
2023-07-11T10:20:03.658Z,35.40
2023-07-11T10:20:54.837Z,32.18
2023-07-11T10:21:54.848Z,32.18
2023-07-11T10:22:54.819Z,28.63
2023-07-11T10:23:54.838Z,32.50
2023-07-11T10:24:54.790Z,32.18
2023-07-11T10:25:54.836Z,28.96
2023-07-11T10:26:54.801Z,32.50
2023-07-11T10:27:55.816Z,32.50
2023-07-11T10:28:54.752Z,36.04
2023-07-11T10:29:54.760Z,32.82
2023-07-11T10:30:54.814Z,32.82
2023-07-11T10:31:54.770Z,26.38
2023-07-11T10:32:57.543Z,33.14
2023-07-11T10:33:57.465Z,33.47
2023-07-11T10:34:54.732Z,36.69
2023-07-11T10:35:54.714Z,33.14
2023-07-11T10:36:54.675Z,32.82
2023-07-11T10:37:54.707Z,32.82
2023-07-11T10:38:54.668Z,32.82
2023-07-11T10:39:54.680Z,37.01
2023-07-11T10:40:54.669Z,30.57
2023-07-11T10:41:54.654Z,29.28
2023-07-11T10:42:54.661Z,33.47
2023-07-11T10:43:54.666Z,33.14
2023-07-11T10:44:54.614Z,29.60
2023-07-11T10:45:54.624Z,33.14
2023-07-11T10:46:54.640Z,33.14
2023-07-11T10:47:54.649Z,33.14
2023-07-11T10:48:54.577Z,33.79
2023-07-11T10:49:54.585Z,25.09
2023-07-11T10:50:54.552Z,34.11
2023-07-11T10:51:54.592Z,34.11
2023-07-11T10:52:54.528Z,34.43
2023-07-11T10:53:54.530Z,34.76
2023-07-11T10:54:54.533Z,35.08
2023-07-11T10:55:54.507Z,35.40
2023-07-11T10:56:54.534Z,30.24
2023-07-11T10:57:54.491Z,35.40
2023-07-11T10:58:54.497Z,35.08
2023-07-11T10:59:54.463Z,38.95
2023-07-11T11:00:54.502Z,35.08
2023-07-11T11:01:54.476Z,35.40
2023-07-11T11:02:54.622Z,32.50
2023-07-11T11:03:54.491Z,36.69
2023-07-11T11:04:54.476Z,40.56
2023-07-11T11:05:54.444Z,32.18
2023-07-11T11:06:54.439Z,41.52
2023-07-11T11:07:54.395Z,30.57
2023-07-11T11:08:54.412Z,37.01
2023-07-11T11:09:54.392Z,39.91
2023-07-11T11:10:54.452Z,38.30
2023-07-11T11:11:56.444Z,31.86
2023-07-11T11:12:54.372Z,44.42
2023-07-11T11:13:54.420Z,31.86
2023-07-11T11:14:54.344Z,34.43
2023-07-11T11:15:54.322Z,38.30
2023-07-11T11:16:54.329Z,41.85
2023-07-11T11:17:54.391Z,37.98
2023-07-11T11:18:54.340Z,42.49
2023-07-11T11:19:54.291Z,38.30
2023-07-11T11:21:06.256Z,32.50
2023-07-11T11:21:54.269Z,37.98
2023-07-11T11:22:54.283Z,38.95
2023-07-11T11:23:54.240Z,38.30
2023-07-11T11:24:54.294Z,39.27
2023-07-11T11:25:54.223Z,35.72
2023-07-11T11:26:54.253Z,39.27
2023-07-11T11:27:54.240Z,32.50
2023-07-11T11:28:54.222Z,42.17
2023-07-11T11:29:54.189Z,39.27
2023-07-11T11:30:54.291Z,34.43
2023-07-11T11:31:54.176Z,42.49
2023-07-11T11:32:54.261Z,39.59
2023-07-11T11:33:54.164Z,47.97
2023-07-11T11:35:04.182Z,38.95
2023-07-11T11:35:54.144Z,39.27
2023-07-11T11:36:54.158Z,39.59
2023-07-11T11:37:54.123Z,46.36
2023-07-11T11:38:54.133Z,39.91
2023-07-11T11:39:54.117Z,40.23
2023-07-11T11:40:54.154Z,39.27
2023-07-11T11:41:54.085Z,39.27
2023-07-11T11:43:01.301Z,39.59
2023-07-11T11:46:53.371Z,39.59
2023-07-11T11:49:42.556Z,35.72
2023-07-11T11:50:39.698Z,38.62
2023-07-11T11:50:58.184Z,32.18
2023-07-11T11:51:58.328Z,33.14
2023-07-11T11:52:59.758Z,38.62
2023-07-11T11:53:58.257Z,38.95
2023-07-11T11:54:58.304Z,38.95
2023-07-11T11:56:10.666Z,29.92
2023-07-11T11:56:58.265Z,34.76
2023-07-11T11:57:58.230Z,38.30
2023-07-11T11:58:58.275Z,38.62
2023-07-11T11:59:58.226Z,39.27
2023-07-11T12:00:58.215Z,37.98
2023-07-11T12:01:58.222Z,32.18
2023-07-11T12:02:58.273Z,36.04
2023-07-11T12:03:58.222Z,38.95
2023-07-11T12:04:58.292Z,38.30
2023-07-11T12:05:58.158Z,38.62
2023-07-11T12:06:58.160Z,42.17
2023-07-11T12:07:58.140Z,38.62
2023-07-11T12:08:58.152Z,38.62
2023-07-11T12:09:58.367Z,34.76
2023-07-11T12:10:58.236Z,38.30
2023-07-11T12:11:58.335Z,32.50
2023-07-11T12:12:58.168Z,38.62
2023-07-11T12:13:58.339Z,37.98
2023-07-11T12:14:58.161Z,39.91
2023-07-11T12:15:58.104Z,38.95
2023-07-11T12:16:58.120Z,38.95
2023-07-11T12:17:58.096Z,50.22
2023-07-11T12:18:58.160Z,35.40
2023-07-11T12:19:58.041Z,38.30
2023-07-11T12:20:58.047Z,43.13
2023-07-11T12:21:58.223Z,34.11
2023-07-11T12:22:58.226Z,31.86
2023-07-11T12:24:39.999Z,38.30
2023-07-11T12:24:58.212Z,32.18
2023-07-11T12:26:00.506Z,37.98
2023-07-11T12:26:58.166Z,38.30
2023-07-11T12:27:58.093Z,44.42
2023-07-11T12:28:58.143Z,39.59
2023-07-11T12:29:58.014Z,38.30
2023-07-11T12:30:58.162Z,38.62
2023-07-11T12:31:58.181Z,38.30
2023-07-11T12:32:58.128Z,37.98
2023-07-11T12:33:58.054Z,37.98
2023-07-11T12:34:58.105Z,38.30
2023-07-11T12:35:58.129Z,37.66
2023-07-11T12:36:58.076Z,38.30
2023-07-11T12:37:58.112Z,41.20
2023-07-11T12:38:58.066Z,33.79
2023-07-11T12:39:58.065Z,38.62
2023-07-11T12:40:58.046Z,38.95
2023-07-11T12:41:58.016Z,38.62
2023-07-11T12:42:58.068Z,39.59
2023-07-11T12:43:57.934Z,38.95
2023-07-11T12:44:59.168Z,38.62
2023-07-11T12:45:58.003Z,38.62
2023-07-11T12:46:58.046Z,38.95
2023-07-11T12:47:57.968Z,39.27
2023-07-11T12:48:57.916Z,34.43
2023-07-11T12:49:58.006Z,38.62
2023-07-11T12:50:57.818Z,38.62
2023-07-11T12:51:57.978Z,31.86
2023-07-11T12:52:57.980Z,41.20
2023-07-11T12:53:58.038Z,41.52
2023-07-11T12:54:57.782Z,36.69
2023-07-11T12:55:57.874Z,34.76
2023-07-11T12:56:57.871Z,36.69
2023-07-11T12:57:57.821Z,28.63